Powers, Michigan
Current Conditions -  °F | °C
As of 1:15 AM on Saturday 25 Oct 2014 (Local Time) from KESC Reporting Station
Scattered Clouds Scattered Clouds  
Wind Chill: 10°   Ceiling: Unl
Heat Index: 10°   Visibility: 5mi
Dew Point:   Wind: 6mph
Humidity: 87%   Direction: 210°SSW
Pressure: 29.74"   Gusts: NA
Location:  45.69°N, 87.53°W
Report Text: KESC 250615Z AUTO 21005KT 5SM SCT017 10/08 A2974 RMK AO1
Loading
Personal Weather Stations






























Interactive Weather Map
Tropical Storm Tracking
New forecast layout! Learn more

10-Day Weather Forecast

Advertisements
Track Severe Weather on mobile